Time;durP1;ratioP1;P1;durP2;ratioP2;P2;SDS_P1;SDS_P2;PMS_P1;PMS_P2;Temp;Humidity;BMP_temperature;BMP_pressure;BME280_temperature;BME280_humidity;BME280_pressure;Samples;Min_cycle;Max_cycle;Signal;HPM_P1;HPM_P2
2022/11/09 00:01:16;;;;;;;;;;;10.20;99.90;;;;;;5068051;28;19908;-78
2022/11/09 00:03:41;;;;;;;;;;;10.20;99.90;;;;;;5084587;28;19979;-78
2022/11/09 00:06:07;;;;;;;;;;;10.20;99.90;;;;;;5102325;28;20128;-78
2022/11/09 00:08:35;;;;;;;;;;;10.20;99.90;;;;;;5084732;28;19908;-79
2022/11/09 00:11:05;;;;;;;;;;;10.20;99.90;;;;;;5102352;28;19915;-78
2022/11/09 00:13:34;;;;;;;;;;;10.20;99.90;;;;;;5085308;28;20088;-79
2022/11/09 00:16:01;;;;;;;;;;;10.20;99.90;;;;;;5102688;28;19951;-78
2022/11/09 00:18:27;;;;;;;;;;;10.10;99.90;;;;;;5084680;28;20193;-78
2022/11/09 00:20:53;;;;;;;;;;;10.10;99.90;;;;;;5102307;28;19908;-78
2022/11/09 00:23:19;;;;;;;;;;;10.10;99.90;;;;;;5084851;28;20179;-78
2022/11/09 00:25:44;;;;;;;;;;;10.10;99.90;;;;;;5084448;28;19916;-78
2022/11/09 00:28:10;;;;;;;;;;;10.10;99.90;;;;;;5102411;28;19923;-78
2022/11/09 00:30:36;;;;;;;;;;;10.10;99.90;;;;;;5084916;28;19909;-79
2022/11/09 00:33:01;;;;;;;;;;;10.00;99.90;;;;;;5102507;28;19908;-78
2022/11/09 00:35:27;;;;;;;;;;;10.00;99.90;;;;;;5084320;28;20107;-78
2022/11/09 00:37:53;;;;;;;;;;;10.00;99.90;;;;;;5105683;28;19968;-78
2022/11/09 00:40:18;;;;;;;;;;;10.00;99.90;;;;;;5088094;28;19912;-78
2022/11/09 00:42:44;;;;;;;;;;;10.00;99.90;;;;;;5106529;28;19946;-78
2022/11/09 00:45:10;;;;;;;;;;;10.00;99.90;;;;;;5071815;28;19916;-78
2022/11/09 00:47:36;;;;;;;;;;;10.00;99.90;;;;;;5088183;28;19908;-78
2022/11/09 00:50:02;;;;;;;;;;;10.00;99.90;;;;;;5110246;28;19908;-78
2022/11/09 00:52:27;;;;;;;;;;;9.90;99.90;;;;;;5092736;28;19947;-78
2022/11/09 00:54:53;;;;;;;;;;;9.90;99.90;;;;;;5110313;28;19908;-78
2022/11/09 00:57:19;;;;;;;;;;;9.90;99.90;;;;;;5109904;28;19908;-78
2022/11/09 00:59:44;;;;;;;;;;;9.80;99.90;;;;;;5091868;28;20119;-79
2022/11/09 01:02:10;;;;;;;;;;;9.80;99.90;;;;;;5089826;28;19919;-78
2022/11/09 01:04:36;;;;;;;;;;;9.80;99.90;;;;;;5107767;28;19908;-78
2022/11/09 01:07:01;;;;;;;;;;;9.80;99.90;;;;;;5106757;28;20137;-79
2022/11/09 01:09:27;;;;;;;;;;;9.80;99.90;;;;;;5107331;28;19908;-78
2022/11/09 01:11:53;;;;;;;;;;;9.80;99.90;;;;;;5107183;28;19908;-79
2022/11/09 01:14:18;;;;;;;;;;;9.70;99.90;;;;;;5107057;28;20001;-79
2022/11/09 01:16:44;;;;;;;;;;;9.70;99.90;;;;;;5106095;28;19908;-78
2022/11/09 01:19:10;;;;;;;;;;;9.70;99.90;;;;;;5070943;28;19959;-78
2022/11/09 01:21:35;;;;;;;;;;;9.70;99.90;;;;;;5071367;28;19916;-78
2022/11/09 01:24:02;;;;;;;;;;;9.70;99.90;;;;;;5088138;28;19908;-79
2022/11/09 01:26:27;;;;;;;;;;;9.70;99.90;;;;;;5104995;28;19909;-79
2022/11/09 01:28:53;;;;;;;;;;;9.70;99.90;;;;;;5106244;28;19975;-77
2022/11/09 01:31:19;;;;;;;;;;;9.70;99.90;;;;;;5087750;28;19923;-78
2022/11/09 01:33:45;;;;;;;;;;;9.70;99.90;;;;;;5087406;28;19916;-78
2022/11/09 01:36:15;;;;;;;;;;;9.80;99.90;;;;;;5105176;28;19931;-78
2022/11/09 01:38:41;;;;;;;;;;;9.80;99.90;;;;;;5070898;28;19908;-78
2022/11/09 01:41:07;;;;;;;;;;;9.80;99.90;;;;;;5070729;28;19958;-78
2022/11/09 01:43:33;;;;;;;;;;;9.80;99.90;;;;;;5087490;28;19949;-78
2022/11/09 01:46:08;;;;;;;;;;;9.70;99.90;;;;;;5087329;28;19908;-78
2022/11/09 01:48:54;;;;;;;;;;;9.80;99.90;;;;;;5105275;28;19912;-79
2022/11/09 01:51:31;;;;;;;;;;;9.80;99.90;;;;;;5087953;28;19921;-79
2022/11/09 01:54:25;;;;;;;;;;;9.80;99.90;;;;;;5070944;28;19943;-78
2022/11/09 01:56:52;;;;;;;;;;;9.70;99.90;;;;;;5104672;28;19923;-78
2022/11/09 01:59:20;;;;;;;;;;;9.70;99.90;;;;;;5105057;28;19955;-78
2022/11/09 02:01:46;;;;;;;;;;;9.70;99.90;;;;;;5087561;28;19908;-79
2022/11/09 02:04:14;;;;;;;;;;;9.70;99.90;;;;;;5087766;28;19962;-79
2022/11/09 02:06:39;;;;;;;;;;;9.70;99.90;;;;;;5087702;28;20092;-79
2022/11/09 02:09:18;;;;;;;;;;;9.70;99.90;;;;;;5105192;28;19952;-77
2022/11/09 02:11:43;;;;;;;;;;;9.70;99.90;;;;;;5069304;28;19916;-77
2022/11/09 02:14:09;;;;;;;;;;;9.80;99.90;;;;;;5104247;28;19919;-76
2022/11/09 02:16:35;;;;;;;;;;;9.80;99.90;;;;;;5104935;28;19916;-78
2022/11/09 02:19:00;;;;;;;;;;;9.80;99.90;;;;;;5086746;28;20230;-78
2022/11/09 02:21:27;;;;;;;;;;;9.70;99.90;;;;;;5104846;28;19908;-78
2022/11/09 02:23:53;;;;;;;;;;;9.80;99.90;;;;;;5070074;28;19916;-78
2022/11/09 02:26:31;;;;;;;;;;;9.80;99.90;;;;;;5103302;28;19988;-78
2022/11/09 02:28:57;;;;;;;;;;;9.80;99.90;;;;;;5086940;28;19908;-78
2022/11/09 02:31:24;;;;;;;;;;;9.80;99.90;;;;;;5071040;28;19912;-78
2022/11/09 02:33:50;;;;;;;;;;;9.80;99.90;;;;;;5087275;28;20237;-77
2022/11/09 02:36:16;;;;;;;;;;;9.80;99.90;;;;;;5105601;28;19908;-78
2022/11/09 02:38:41;;;;;;;;;;;9.90;99.90;;;;;;5087188;28;20546;-78
2022/11/09 02:41:07;;;;;;;;;;;9.90;99.90;;;;;;5087669;28;20035;-78
2022/11/09 02:43:34;;;;;;;;;;;9.90;99.90;;;;;;5103857;28;20164;-78
2022/11/09 02:45:59;;;;;;;;;;;9.90;99.90;;;;;;5086239;28;19938;-78
2022/11/09 02:48:25;;;;;;;;;;;9.90;99.90;;;;;;5103701;28;19975;-78
2022/11/09 02:50:51;;;;;;;;;;;9.90;99.90;;;;;;5103753;28;20115;-78
2022/11/09 02:53:16;;;;;;;;;;;9.90;99.90;;;;;;5103679;28;19908;-78
2022/11/09 02:55:42;;;;;;;;;;;9.90;99.90;;;;;;5103261;28;19920;-77
2022/11/09 02:58:07;;;;;;;;;;;9.90;99.90;;;;;;5068522;28;19923;-76
2022/11/09 03:00:33;;;;;;;;;;;9.80;99.90;;;;;;5102854;28;19912;-76
2022/11/09 03:02:59;;;;;;;;;;;9.80;99.90;;;;;;5085231;28;19912;-76
2022/11/09 03:05:24;;;;;;;;;;;9.90;99.90;;;;;;5085294;28;20218;-77
2022/11/09 03:07:50;;;;;;;;;;;9.90;99.90;;;;;;5084637;28;20007;-77
2022/11/09 03:10:16;;;;;;;;;;;9.90;99.90;;;;;;5085131;28;19927;-76
2022/11/09 03:12:41;;;;;;;;;;;9.90;99.90;;;;;;5084904;28;20085;-77
2022/11/09 03:15:07;;;;;;;;;;;9.90;99.90;;;;;;5103150;28;20022;-77
2022/11/09 03:17:33;;;;;;;;;;;9.90;99.90;;;;;;5084924;28;20006;-76
2022/11/09 03:19:59;;;;;;;;;;;9.90;99.90;;;;;;5102218;28;20346;-76
2022/11/09 03:22:24;;;;;;;;;;;9.90;99.90;;;;;;5102971;28;20104;-76
2022/11/09 03:24:50;;;;;;;;;;;10.00;99.90;;;;;;5101863;28;20242;-77
2022/11/09 03:27:16;;;;;;;;;;;10.00;99.90;;;;;;5102570;28;19908;-76
2022/11/09 03:29:41;;;;;;;;;;;10.00;99.90;;;;;;5084876;28;20085;-76
2022/11/09 03:32:07;;;;;;;;;;;10.00;99.90;;;;;;5084801;28;20112;-77
2022/11/09 03:34:33;;;;;;;;;;;10.10;99.90;;;;;;5102865;28;19979;-77
2022/11/09 03:36:58;;;;;;;;;;;10.10;99.90;;;;;;5067857;28;19916;-77
2022/11/09 03:39:24;;;;;;;;;;;10.10;99.90;;;;;;5084686;28;19957;-76
2022/11/09 03:41:50;;;;;;;;;;;10.10;99.90;;;;;;5084480;28;19908;-76
2022/11/09 03:44:15;;;;;;;;;;;10.10;99.90;;;;;;5102789;28;19908;-76
2022/11/09 03:46:41;;;;;;;;;;;10.10;99.90;;;;;;5102374;28;19970;-76
2022/11/09 03:49:07;;;;;;;;;;;10.10;99.90;;;;;;5083981;28;19950;-76
2022/11/09 03:51:32;;;;;;;;;;;10.10;99.90;;;;;;5102536;28;19916;-77
2022/11/09 03:53:58;;;;;;;;;;;10.10;99.90;;;;;;5102564;28;19908;-77
2022/11/09 03:56:24;;;;;;;;;;;10.10;99.90;;;;;;5083881;28;20170;-76
2022/11/09 03:58:49;;;;;;;;;;;10.10;99.90;;;;;;5102420;28;19913;-77
2022/11/09 04:01:15;;;;;;;;;;;10.00;99.90;;;;;;5102772;28;19915;-76
2022/11/09 04:03:40;;;;;;;;;;;10.00;99.90;;;;;;5084314;28;19908;-77
2022/11/09 04:06:06;;;;;;;;;;;10.00;99.90;;;;;;5102120;28;20199;-76
2022/11/09 04:08:32;;;;;;;;;;;10.00;99.90;;;;;;5102347;28;19951;-76
2022/11/09 04:10:57;;;;;;;;;;;10.00;99.90;;;;;;5101376;28;19916;-76
2022/11/09 04:13:23;;;;;;;;;;;10.10;99.90;;;;;;5106645;28;19908;-76
2022/11/09 04:15:49;;;;;;;;;;;10.10;99.90;;;;;;5106588;28;19912;-76
2022/11/09 04:18:15;;;;;;;;;;;10.10;99.90;;;;;;5088042;28;20139;-77
2022/11/09 04:20:40;;;;;;;;;;;10.10;99.90;;;;;;5106353;28;20175;-74
2022/11/09 04:23:07;;;;;;;;;;;10.10;99.90;;;;;;5106410;28;19908;-74
2022/11/09 04:25:34;;;;;;;;;;;10.20;99.90;;;;;;5088332;28;19922;-74
2022/11/09 04:28:00;;;;;;;;;;;10.20;99.90;;;;;;5105879;28;19916;-76
2022/11/09 04:30:29;;;;;;;;;;;10.20;99.90;;;;;;5088324;28;19908;-76
2022/11/09 04:32:55;;;;;;;;;;;10.20;99.90;;;;;;5106225;28;20244;-77
2022/11/09 04:35:21;;;;;;;;;;;10.20;99.90;;;;;;5088190;28;19978;-77
2022/11/09 04:38:00;;;;;;;;;;;10.30;99.90;;;;;;5105348;28;19915;-76
2022/11/09 04:40:27;;;;;;;;;;;10.30;99.90;;;;;;5088004;28;19912;-76
2022/11/09 04:42:53;;;;;;;;;;;10.30;99.90;;;;;;5105961;28;20355;-76
2022/11/09 04:45:19;;;;;;;;;;;10.40;99.90;;;;;;5088158;28;19911;-76
2022/11/09 04:47:44;;;;;;;;;;;10.30;99.90;;;;;;5087786;28;19919;-77
2022/11/09 04:50:10;;;;;;;;;;;10.30;99.90;;;;;;5105440;28;19940;-77
2022/11/09 04:52:36;;;;;;;;;;;10.40;99.90;;;;;;5087920;28;19908;-77
2022/11/09 04:55:02;;;;;;;;;;;10.40;99.90;;;;;;5087964;28;19908;-76
2022/11/09 04:57:27;;;;;;;;;;;10.40;99.90;;;;;;5070775;28;20092;-76
2022/11/09 04:59:53;;;;;;;;;;;10.40;99.90;;;;;;5087459;28;19912;-77
2022/11/09 05:02:18;;;;;;;;;;;10.40;99.90;;;;;;5105642;28;19908;-77
2022/11/09 05:04:44;;;;;;;;;;;10.40;99.90;;;;;;5105471;28;20221;-77
2022/11/09 05:07:10;;;;;;;;;;;10.40;99.90;;;;;;5105345;28;19969;-77
2022/11/09 05:09:35;;;;;;;;;;;10.30;99.90;;;;;;5105279;28;19908;-77
2022/11/09 05:12:01;;;;;;;;;;;10.40;99.90;;;;;;5104250;28;19908;-76
2022/11/09 05:14:27;;;;;;;;;;;10.40;99.90;;;;;;5105382;28;19923;-75
2022/11/09 05:16:52;;;;;;;;;;;10.40;99.90;;;;;;5105216;28;20119;-76
2022/11/09 05:19:18;;;;;;;;;;;10.40;99.90;;;;;;5084014;28;19939;-76
2022/11/09 05:21:44;;;;;;;;;;;10.40;99.90;;;;;;5094016;28;19918;-75
2022/11/09 05:24:09;;;;;;;;;;;10.40;99.90;;;;;;5095674;28;19908;-75
2022/11/09 05:26:37;;;;;;;;;;;10.50;99.90;;;;;;5098686;28;19930;-75
2022/11/09 05:29:12;;;;;;;;;;;10.40;99.90;;;;;;5092906;28;19928;-75
2022/11/09 05:31:38;;;;;;;;;;;10.40;99.90;;;;;;5094892;28;19966;-76
2022/11/09 05:34:04;;;;;;;;;;;10.40;99.90;;;;;;5103226;28;19908;-75
2022/11/09 05:36:32;;;;;;;;;;;10.30;99.90;;;;;;5095195;28;20196;-76
2022/11/09 05:38:58;;;;;;;;;;;10.30;99.90;;;;;;5097849;28;19927;-75
2022/11/09 05:41:24;;;;;;;;;;;10.30;99.90;;;;;;5084066;28;20067;-76
2022/11/09 05:43:49;;;;;;;;;;;10.30;99.90;;;;;;5103006;28;19908;-75
2022/11/09 05:46:15;;;;;;;;;;;10.30;99.90;;;;;;5104490;28;19907;-75
2022/11/09 05:48:41;;;;;;;;;;;10.30;99.90;;;;;;5103134;28;19984;-75
2022/11/09 05:51:09;;;;;;;;;;;10.40;99.90;;;;;;5104924;28;19929;-75
2022/11/09 05:53:35;;;;;;;;;;;10.40;99.90;;;;;;5092968;28;19919;-75
2022/11/09 05:56:02;;;;;;;;;;;10.40;99.90;;;;;;5104049;28;19915;-75
2022/11/09 05:58:28;;;;;;;;;;;10.40;99.90;;;;;;5104529;28;20166;-76
2022/11/09 06:00:53;;;;;;;;;;;10.40;99.90;;;;;;5104465;28;19912;-75
2022/11/09 06:03:19;;;;;;;;;;;10.40;99.90;;;;;;5104445;28;20211;-76
2022/11/09 06:05:46;;;;;;;;;;;10.40;99.90;;;;;;5104548;28;20156;-75
2022/11/09 06:08:12;;;;;;;;;;;10.30;99.90;;;;;;5093360;28;19922;-76
2022/11/09 06:10:39;;;;;;;;;;;10.30;99.90;;;;;;5082970;28;19962;-76
2022/11/09 06:13:04;;;;;;;;;;;10.30;99.90;;;;;;5075330;28;19947;-76
2022/11/09 06:15:30;;;;;;;;;;;10.20;99.90;;;;;;5099715;28;20266;-76
2022/11/09 06:17:56;;;;;;;;;;;10.10;99.90;;;;;;5111021;28;19934;-76
2022/11/09 06:20:22;;;;;;;;;;;10.00;99.90;;;;;;5103336;28;19928;-76
2022/11/09 06:23:00;;;;;;;;;;;10.00;99.90;;;;;;5068254;28;19920;-76
2022/11/09 06:25:26;;;;;;;;;;;10.00;99.90;;;;;;5097117;28;19981;-75
2022/11/09 06:27:55;;;;;;;;;;;10.00;99.90;;;;;;5100881;28;20141;-74
2022/11/09 06:30:21;;;;;;;;;;;10.00;99.90;;;;;;5103259;28;20137;-77
2022/11/09 06:32:46;;;;;;;;;;;9.90;99.90;;;;;;5085874;28;19908;-75
2022/11/09 06:35:12;;;;;;;;;;;10.00;99.90;;;;;;5087983;28;19924;-76
2022/11/09 06:37:38;;;;;;;;;;;9.90;99.90;;;;;;5085027;28;19912;-76
2022/11/09 06:40:04;;;;;;;;;;;10.00;99.90;;;;;;5052597;28;19977;-76
2022/11/09 06:42:30;;;;;;;;;;;10.00;99.90;;;;;;5093872;28;19975;-77
2022/11/09 06:44:55;;;;;;;;;;;10.00;99.90;;;;;;5103333;28;19915;-75
2022/11/09 06:47:21;;;;;;;;;;;9.90;99.90;;;;;;5103304;28;19920;-76
2022/11/09 06:49:47;;;;;;;;;;;9.90;99.90;;;;;;5103473;28;19908;-76
2022/11/09 06:52:12;;;;;;;;;;;9.90;99.90;;;;;;5103593;28;20446;-75
2022/11/09 06:54:38;;;;;;;;;;;9.90;99.90;;;;;;5119269;28;19920;-76
2022/11/09 06:57:03;;;;;;;;;;;9.90;99.90;;;;;;5103047;28;19908;-75
2022/11/09 06:59:29;;;;;;;;;;;9.90;99.90;;;;;;5103293;28;20230;-75
2022/11/09 07:01:55;;;;;;;;;;;9.90;99.90;;;;;;5103407;28;19943;-75
2022/11/09 07:04:20;;;;;;;;;;;9.90;99.90;;;;;;5102115;28;19914;-75
2022/11/09 07:06:46;;;;;;;;;;;10.00;99.90;;;;;;5102892;28;19908;-74
2022/11/09 07:09:12;;;;;;;;;;;9.90;99.90;;;;;;5101841;28;19965;-74
2022/11/09 07:11:37;;;;;;;;;;;9.90;99.90;;;;;;5094208;28;19916;-74
2022/11/09 07:14:03;;;;;;;;;;;9.90;99.90;;;;;;5085124;28;19915;-74
2022/11/09 07:16:29;;;;;;;;;;;9.90;99.90;;;;;;5102858;28;20107;-74
2022/11/09 07:18:55;;;;;;;;;;;9.90;99.90;;;;;;5084870;28;19920;-74
2022/11/09 07:21:22;;;;;;;;;;;9.90;99.90;;;;;;5102513;28;20221;-74
2022/11/09 07:23:48;;;;;;;;;;;10.00;99.90;;;;;;5084949;28;19908;-74
2022/11/09 07:26:14;;;;;;;;;;;10.00;99.90;;;;;;5084377;28;19916;-74
2022/11/09 07:28:40;;;;;;;;;;;10.00;99.90;;;;;;5102486;28;19908;-74
2022/11/09 07:31:06;;;;;;;;;;;10.00;99.90;;;;;;5084884;28;19909;-74
2022/11/09 07:33:32;;;;;;;;;;;9.90;99.90;;;;;;5102836;28;19908;-74
2022/11/09 07:36:01;;;;;;;;;;;9.90;99.90;;;;;;5084232;28;20229;-74
2022/11/09 07:38:27;;;;;;;;;;;9.90;99.90;;;;;;5084849;28;20178;-74
2022/11/09 07:40:53;;;;;;;;;;;9.90;99.90;;;;;;5102798;28;20119;-74
2022/11/09 07:43:19;;;;;;;;;;;10.00;99.90;;;;;;5102525;28;19915;-74
2022/11/09 07:45:44;;;;;;;;;;;9.90;99.90;;;;;;5084561;28;19908;-74
2022/11/09 07:48:10;;;;;;;;;;;9.90;99.90;;;;;;5084689;28;20225;-74
2022/11/09 07:50:37;;;;;;;;;;;9.90;99.90;;;;;;5084852;28;19979;-74
2022/11/09 07:53:04;;;;;;;;;;;9.90;99.90;;;;;;5102740;28;19916;-74
2022/11/09 07:55:30;;;;;;;;;;;9.90;99.90;;;;;;5102815;28;19973;-74
2022/11/09 07:57:59;;;;;;;;;;;9.90;99.90;;;;;;5084109;28;19908;-74
2022/11/09 08:00:26;;;;;;;;;;;9.90;99.90;;;;;;5084736;28;19912;-74
2022/11/09 08:02:51;;;;;;;;;;;9.90;99.90;;;;;;5085052;28;19908;-74
2022/11/09 08:05:17;;;;;;;;;;;10.00;99.90;;;;;;5084728;28;19991;-74
2022/11/09 08:07:43;;;;;;;;;;;10.00;99.90;;;;;;5084412;28;19938;-74
2022/11/09 08:10:09;;;;;;;;;;;9.90;99.90;;;;;;5084682;28;20107;-74
2022/11/09 08:12:34;;;;;;;;;;;9.90;99.90;;;;;;5084515;28;19920;-74
2022/11/09 08:15:00;;;;;;;;;;;9.90;99.90;;;;;;5102598;28;19942;-74
2022/11/09 08:17:25;;;;;;;;;;;10.00;99.90;;;;;;5084215;28;19908;-74
2022/11/09 08:19:51;;;;;;;;;;;10.00;99.90;;;;;;5102388;28;19948;-74
2022/11/09 08:22:17;;;;;;;;;;;10.00;99.90;;;;;;5084781;28;19923;-74
2022/11/09 08:24:43;;;;;;;;;;;10.10;99.90;;;;;;5102508;28;19986;-74
2022/11/09 08:27:08;;;;;;;;;;;10.10;99.90;;;;;;5101828;28;19908;-74
2022/11/09 08:29:37;;;;;;;;;;;10.20;99.90;;;;;;5102258;28;20203;-74
2022/11/09 08:32:02;;;;;;;;;;;10.20;99.90;;;;;;5084730;28;19920;-74
2022/11/09 08:34:28;;;;;;;;;;;10.20;99.90;;;;;;5102155;28;20264;-74
2022/11/09 08:36:53;;;;;;;;;;;10.20;99.90;;;;;;5102037;28;20225;-74
2022/11/09 08:39:21;;;;;;;;;;;10.20;99.90;;;;;;5084239;28;19983;-74
2022/11/09 08:41:50;;;;;;;;;;;10.20;99.90;;;;;;5101343;28;19915;-76
2022/11/09 08:44:15;;;;;;;;;;;10.10;99.90;;;;;;5101214;28;19915;-74
2022/11/09 08:46:41;;;;;;;;;;;10.10;99.90;;;;;;5102201;28;19908;-76
2022/11/09 08:49:07;;;;;;;;;;;10.10;99.90;;;;;;5102236;28;19923;-74
2022/11/09 08:51:32;;;;;;;;;;;10.10;99.90;;;;;;5084094;28;19916;-74
2022/11/09 08:53:58;;;;;;;;;;;10.10;99.90;;;;;;5084175;28;19908;-74
2022/11/09 08:56:24;;;;;;;;;;;10.10;99.90;;;;;;5101316;28;19920;-74
2022/11/09 08:58:49;;;;;;;;;;;10.10;99.90;;;;;;5105051;28;19915;-74
2022/11/09 09:01:16;;;;;;;;;;;10.20;99.90;;;;;;5105980;28;19943;-75
2022/11/09 09:03:41;;;;;;;;;;;10.20;99.90;;;;;;5088011;28;19914;-74
2022/11/09 09:06:07;;;;;;;;;;;10.30;99.90;;;;;;5105594;28;19916;-74
2022/11/09 09:08:33;;;;;;;;;;;10.30;99.90;;;;;;5106120;28;19928;-74
2022/11/09 09:11:02;;;;;;;;;;;10.30;99.90;;;;;;5087367;28;19920;-74
2022/11/09 09:13:29;;;;;;;;;;;10.30;99.90;;;;;;5093660;28;20022;-74
2022/11/09 09:15:54;;;;;;;;;;;10.40;99.90;;;;;;5077511;28;19940;-75
2022/11/09 09:18:20;;;;;;;;;;;10.50;99.90;;;;;;5093506;28;19970;-74
2022/11/09 09:20:46;;;;;;;;;;;10.60;99.90;;;;;;5071021;28;19912;-74
2022/11/09 09:23:14;;;;;;;;;;;10.50;99.90;;;;;;5091627;28;20271;-74
2022/11/09 09:25:39;;;;;;;;;;;10.60;99.90;;;;;;5076350;28;19939;-74
2022/11/09 09:28:05;;;;;;;;;;;10.50;99.90;;;;;;5077191;28;20203;-75
2022/11/09 09:30:31;;;;;;;;;;;10.50;99.90;;;;;;5074920;28;20266;-74
2022/11/09 09:32:59;;;;;;;;;;;10.50;99.90;;;;;;5095315;28;19931;-75
2022/11/09 09:35:25;;;;;;;;;;;10.50;99.90;;;;;;5059986;28;19908;-75
2022/11/09 09:37:50;;;;;;;;;;;10.50;99.90;;;;;;5075013;28;19939;-75
2022/11/09 09:40:25;;;;;;;;;;;10.50;99.90;;;;;;5093264;28;19913;-75
2022/11/09 09:42:51;;;;;;;;;;;10.60;99.90;;;;;;5093168;28;19917;-75
2022/11/09 09:45:19;;;;;;;;;;;10.60;99.90;;;;;;5095180;28;20107;-75
2022/11/09 09:47:58;;;;;;;;;;;10.60;99.90;;;;;;5076482;28;19971;-75
2022/11/09 09:50:31;;;;;;;;;;;10.70;99.90;;;;;;5093921;28;20102;-75
2022/11/09 09:53:09;;;;;;;;;;;10.70;99.90;;;;;;5092281;28;19908;-75
2022/11/09 09:55:40;;;;;;;;;;;10.70;99.90;;;;;;5104719;28;20174;-76
2022/11/09 09:58:11;;;;;;;;;;;10.70;99.90;;;;;;5069372;28;20199;-75
2022/11/09 10:00:37;;;;;;;;;;;10.70;99.90;;;;;;5086597;28;20235;-75
2022/11/09 10:03:04;;;;;;;;;;;10.70;99.90;;;;;;5095178;28;19926;-75
2022/11/09 10:05:42;;;;;;;;;;;10.80;99.90;;;;;;5077486;28;20207;-75
2022/11/09 10:08:12;;;;;;;;;;;10.80;99.90;;;;;;5076181;28;19915;-75
2022/11/09 10:11:03;;;;;;;;;;;10.90;99.90;;;;;;5076476;28;19915;-74
2022/11/09 10:13:55;;;;;;;;;;;10.90;99.90;;;;;;5092304;28;19939;-75
2022/11/09 10:16:39;;;;;;;;;;;11.00;99.90;;;;;;5070468;28;19958;-75
2022/11/09 10:19:35;;;;;;;;;;;11.10;99.90;;;;;;5067174;28;20219;-75
2022/11/09 10:22:19;;;;;;;;;;;11.20;99.90;;;;;;5055412;28;19939;-75
2022/11/09 10:24:53;;;;;;;;;;;11.30;99.90;;;;;;5071197;28;20199;-75
2022/11/09 10:27:41;;;;;;;;;;;11.40;99.90;;;;;;5103663;28;19915;-75
2022/11/09 10:30:13;;;;;;;;;;;11.40;99.90;;;;;;5103747;28;19916;-76
2022/11/09 10:32:39;;;;;;;;;;;11.50;99.90;;;;;;5086225;28;19907;-76
2022/11/09 10:35:21;;;;;;;;;;;11.50;99.90;;;;;;5085918;28;20355;-75
2022/11/09 10:37:51;;;;;;;;;;;11.50;99.90;;;;;;5103500;28;19914;-75
2022/11/09 10:40:24;;;;;;;;;;;11.60;99.90;;;;;;5085709;28;19976;-76
2022/11/09 10:42:53;;;;;;;;;;;11.70;99.90;;;;;;5064839;28;19909;-74
2022/11/09 10:45:22;;;;;;;;;;;11.70;99.90;;;;;;5082408;28;19908;-74
2022/11/09 10:47:49;;;;;;;;;;;11.90;99.90;;;;;;5065432;28;19938;-74
2022/11/09 10:50:31;;;;;;;;;;;12.00;99.90;;;;;;5065357;28;20034;-75
2022/11/09 10:53:12;;;;;;;;;;;12.10;99.90;;;;;;5065364;28;19950;-75
2022/11/09 10:55:38;;;;;;;;;;;12.20;99.90;;;;;;5083272;28;19916;-74
2022/11/09 10:58:21;;;;;;;;;;;12.30;99.90;;;;;;5048354;28;20199;-75
2022/11/09 11:01:13;;;;;;;;;;;12.50;99.90;;;;;;5066868;28;19913;-73
2022/11/09 11:03:39;;;;;;;;;;;12.70;99.90;;;;;;5065640;28;19912;-74
2022/11/09 11:06:16;;;;;;;;;;;12.90;99.90;;;;;;5082604;28;19908;-73
2022/11/09 11:08:47;;;;;;;;;;;13.10;99.90;;;;;;5082877;28;19916;-74
2022/11/09 11:11:23;;;;;;;;;;;13.10;99.90;;;;;;5066900;28;20028;-74
2022/11/09 11:13:49;;;;;;;;;;;13.20;99.90;;;;;;5084881;28;19923;-74
2022/11/09 11:16:26;;;;;;;;;;;13.30;99.90;;;;;;5085170;28;19908;-74
2022/11/09 11:18:52;;;;;;;;;;;13.40;99.90;;;;;;5068736;28;19912;-74
2022/11/09 11:21:19;;;;;;;;;;;13.40;99.90;;;;;;5084913;28;19973;-74
2022/11/09 11:24:09;;;;;;;;;;;13.50;99.90;;;;;;5102967;28;19918;-74
2022/11/09 11:26:56;;;;;;;;;;;13.50;99.90;;;;;;5070953;28;20122;-75
2022/11/09 11:29:44;;;;;;;;;;;13.60;99.90;;;;;;5085149;28;19939;-74
2022/11/09 11:32:13;;;;;;;;;;;13.70;99.90;;;;;;5084468;28;20217;-75
2022/11/09 11:34:39;;;;;;;;;;;13.80;99.90;;;;;;5068378;28;19969;-75
2022/11/09 11:37:23;;;;;;;;;;;13.80;99.90;;;;;;5084787;28;19908;-75
2022/11/09 11:39:57;;;;;;;;;;;13.80;99.90;;;;;;5102739;28;19957;-74
2022/11/09 11:42:41;;;;;;;;;;;13.80;99.90;;;;;;5102246;28;20229;-74
2022/11/09 11:45:14;;;;;;;;;;;13.90;99.90;;;;;;5096646;28;19920;-75
2022/11/09 11:47:40;;;;;;;;;;;13.90;99.90;;;;;;5056369;28;19912;-76
2022/11/09 11:50:06;;;;;;;;;;;13.80;99.90;;;;;;5093074;28;20229;-76
2022/11/09 11:52:48;;;;;;;;;;;13.90;99.90;;;;;;5097134;28;19911;-76
2022/11/09 11:55:58;;;;;;;;;;;13.90;99.90;;;;;;5097575;28;19919;-76
2022/11/09 11:58:42;;;;;;;;;;;13.90;99.90;;;;;;4990484;28;19920;-75
2022/11/09 12:01:32;;;;;;;;;;;13.90;99.90;;;;;;5090613;28;19966;-76
2022/11/09 12:04:01;;;;;;;;;;;13.90;99.90;;;;;;5091949;28;19917;-75
2022/11/09 12:06:42;;;;;;;;;;;13.90;99.90;;;;;;5072489;28;19935;-75
2022/11/09 12:09:24;;;;;;;;;;;14.00;99.90;;;;;;5091532;28;19943;-75
2022/11/09 12:12:34;;;;;;;;;;;14.10;99.90;;;;;;5078780;28;19946;-75
2022/11/09 12:15:37;;;;;;;;;;;14.10;99.90;;;;;;5009503;28;19910;-74
2022/11/09 12:18:21;;;;;;;;;;;14.10;99.90;;;;;;5091719;28;19931;-75
2022/11/09 12:21:01;;;;;;;;;;;14.30;99.90;;;;;;5082340;28;20155;-74
2022/11/09 12:23:45;;;;;;;;;;;14.40;99.90;;;;;;5063840;28;19908;-75
2022/11/09 12:26:18;;;;;;;;;;;14.40;99.90;;;;;;5080968;28;20203;-74
2022/11/09 12:29:02;;;;;;;;;;;14.40;99.90;;;;;;5079899;28;20394;-74
2022/11/09 12:31:34;;;;;;;;;;;14.40;99.90;;;;;;5085467;28;19920;-74
2022/11/09 12:34:27;;;;;;;;;;;14.40;99.90;;;;;;5090327;28;19912;-74
2022/11/09 12:37:07;;;;;;;;;;;14.60;99.90;;;;;;5088983;28;19912;-75
2022/11/09 12:39:35;;;;;;;;;;;15.70;99.90;;;;;;5088058;28;19924;-75
2022/11/09 12:42:05;;;;;;;;;;;17.30;99.90;;;;;;5100848;28;19920;-75
2022/11/09 12:44:34;;;;;;;;;;;18.10;99.90;;;;;;5077396;28;19908;-76
2022/11/09 12:47:15;;;;;;;;;;;18.10;99.90;;;;;;5061555;28;19908;-76
2022/11/09 12:49:43;;;;;;;;;;;17.70;99.90;;;;;;5100755;28;19953;-76
2022/11/09 12:52:14;;;;;;;;;;;17.10;99.90;;;;;;5073451;28;19924;-76
2022/11/09 12:54:47;;;;;;;;;;;16.70;99.90;;;;;;5068219;28;19947;-75
2022/11/09 12:57:22;;;;;;;;;;;16.30;99.90;;;;;;5034193;28;19920;-76
2022/11/09 12:59:52;;;;;;;;;;;16.00;99.90;;;;;;5058646;28;19987;-76
2022/11/09 13:02:31;;;;;;;;;;;15.70;99.90;;;;;;5062110;28;19923;-76
2022/11/09 13:04:58;;;;;;;;;;;15.40;99.90;;;;;;5090546;28;19915;-76
2022/11/09 13:07:38;;;;;;;;;;;15.30;99.90;;;;;;5066691;28;19954;-76
2022/11/09 13:10:04;;;;;;;;;;;15.30;99.90;;;;;;5061629;28;19919;-75
2022/11/09 13:12:36;;;;;;;;;;;15.20;99.90;;;;;;5086550;28;20207;-76
2022/11/09 13:15:22;;;;;;;;;;;15.20;99.90;;;;;;5087290;28;19986;-78
2022/11/09 13:17:58;;;;;;;;;;;15.10;99.90;;;;;;5088081;28;20107;-78
2022/11/09 13:20:33;;;;;;;;;;;14.90;99.90;;;;;;5067547;28;19916;-77
2022/11/09 13:23:00;;;;;;;;;;;14.80;99.90;;;;;;5085239;28;19909;-77
2022/11/09 13:25:34;;;;;;;;;;;14.80;99.90;;;;;;5070208;28;19939;-77
2022/11/09 13:27:59;;;;;;;;;;;14.70;99.90;;;;;;5084661;28;19912;-77
2022/11/09 13:30:35;;;;;;;;;;;14.80;99.90;;;;;;5085312;28;20018;-77
2022/11/09 13:33:04;;;;;;;;;;;14.80;99.90;;;;;;5050711;28;19941;-77
2022/11/09 13:35:39;;;;;;;;;;;14.80;99.90;;;;;;5085201;28;19909;-77
2022/11/09 13:38:23;;;;;;;;;;;14.80;99.90;;;;;;5066835;28;19912;-78
2022/11/09 13:40:49;;;;;;;;;;;14.80;99.90;;;;;;5067588;28;19983;-77
2022/11/09 13:43:17;;;;;;;;;;;14.90;99.90;;;;;;5084521;28;20217;-77
2022/11/09 13:45:50;;;;;;;;;;;14.80;99.90;;;;;;5070665;28;19957;-77
2022/11/09 13:48:39;;;;;;;;;;;14.80;99.90;;;;;;5104631;28;19915;-76
2022/11/09 13:51:07;;;;;;;;;;;14.80;99.90;;;;;;5105064;28;20001;-75
2022/11/09 13:53:36;;;;;;;;;;;14.70;99.90;;;;;;5086906;28;19923;-75
2022/11/09 13:56:14;;;;;;;;;;;14.70;99.90;;;;;;5104772;28;19908;-74
2022/11/09 13:58:40;;;;;;;;;;;14.70;99.90;;;;;;5086632;28;19908;-75
2022/11/09 14:01:30;;;;;;;;;;;14.60;99.90;;;;;;5086818;28;19912;-75
2022/11/09 14:03:56;;;;;;;;;;;14.50;99.90;;;;;;5086872;28;19939;-75
2022/11/09 14:06:22;;;;;;;;;;;14.50;99.90;;;;;;5104299;28;19997;-75
2022/11/09 14:08:48;;;;;;;;;;;14.50;99.90;;;;;;5069735;28;19912;-75
2022/11/09 14:11:27;;;;;;;;;;;14.40;99.90;;;;;;5086731;28;19939;-75
2022/11/09 14:13:58;;;;;;;;;;;14.30;99.90;;;;;;5094187;28;20273;-74
2022/11/09 14:16:27;;;;;;;;;;;14.30;99.90;;;;;;5086198;28;20194;-75
2022/11/09 14:19:11;;;;;;;;;;;14.30;99.90;;;;;;5104290;28;19961;-75
2022/11/09 14:21:44;;;;;;;;;;;14.20;99.90;;;;;;5104457;28;20115;-75
2022/11/09 14:24:15;;;;;;;;;;;14.20;99.90;;;;;;5070062;28;19943;-75
2022/11/09 14:26:58;;;;;;;;;;;14.10;99.90;;;;;;5086213;28;19979;-74
2022/11/09 14:29:24;;;;;;;;;;;14.10;99.90;;;;;;5086323;28;20029;-75
2022/11/09 14:31:49;;;;;;;;;;;14.10;99.90;;;;;;5086228;28;20199;-75
2022/11/09 14:34:15;;;;;;;;;;;14.10;99.90;;;;;;5104265;28;19946;-74